sensor_id;sensor_type;location;lat;lon;timestamp;P1;durP1;ratioP1;P2;durP2;ratioP2
9508;SDS011;4792;50.088;8.122;2023-12-14T00:01:30;6.20;;;2.30;;
9508;SDS011;4792;50.088;8.122;2023-12-14T00:03:57;8.80;;;3.10;;
9508;SDS011;4792;50.088;8.122;2023-12-14T00:06:25;5.87;;;2.40;;
9508;SDS011;4792;50.088;8.122;2023-12-14T00:08:55;5.37;;;2.40;;
9508;SDS011;4792;50.088;8.122;2023-12-14T00:11:22;5.77;;;2.57;;
9508;SDS011;4792;50.088;8.122;2023-12-14T00:13:50;7.60;;;2.53;;
9508;SDS011;4792;50.088;8.122;2023-12-14T00:16:18;9.27;;;2.40;;
9508;SDS011;4792;50.088;8.122;2023-12-14T00:18:45;6.80;;;2.37;;
9508;SDS011;4792;50.088;8.122;2023-12-14T00:21:13;8.10;;;2.50;;
9508;SDS011;4792;50.088;8.122;2023-12-14T00:23:41;8.27;;;2.80;;
9508;SDS011;4792;50.088;8.122;2023-12-14T00:26:10;6.03;;;2.70;;
9508;SDS011;4792;50.088;8.122;2023-12-14T00:28:37;12.40;;;3.00;;
9508;SDS011;4792;50.088;8.122;2023-12-14T00:31:05;8.13;;;2.67;;
9508;SDS011;4792;50.088;8.122;2023-12-14T00:33:33;9.53;;;2.70;;
9508;SDS011;4792;50.088;8.122;2023-12-14T00:36:01;7.70;;;2.83;;
9508;SDS011;4792;50.088;8.122;2023-12-14T00:38:28;8.97;;;3.20;;
9508;SDS011;4792;50.088;8.122;2023-12-14T00:40:56;8.23;;;2.80;;
9508;SDS011;4792;50.088;8.122;2023-12-14T00:43:25;7.83;;;3.20;;
9508;SDS011;4792;50.088;8.122;2023-12-14T00:45:53;7.20;;;3.10;;
9508;SDS011;4792;50.088;8.122;2023-12-14T00:48:20;9.93;;;3.20;;
9508;SDS011;4792;50.088;8.122;2023-12-14T00:50:48;8.43;;;3.07;;
9508;SDS011;4792;50.088;8.122;2023-12-14T00:53:16;7.17;;;3.37;;
9508;SDS011;4792;50.088;8.122;2023-12-14T00:55:44;8.23;;;3.30;;
9508;SDS011;4792;50.088;8.122;2023-12-14T00:58:12;7.10;;;3.23;;
9508;SDS011;4792;50.088;8.122;2023-12-14T01:00:41;7.50;;;3.30;;
9508;SDS011;4792;50.088;8.122;2023-12-14T01:03:09;8.00;;;3.33;;
9508;SDS011;4792;50.088;8.122;2023-12-14T01:05:37;9.37;;;3.47;;
9508;SDS011;4792;50.088;8.122;2023-12-14T01:08:04;12.93;;;3.50;;
9508;SDS011;4792;50.088;8.122;2023-12-14T01:10:32;8.90;;;3.10;;
9508;SDS011;4792;50.088;8.122;2023-12-14T01:13:00;6.07;;;3.40;;
9508;SDS011;4792;50.088;8.122;2023-12-14T01:15:28;14.97;;;3.60;;
9508;SDS011;4792;50.088;8.122;2023-12-14T01:17:57;7.57;;;3.40;;
9508;SDS011;4792;50.088;8.122;2023-12-14T01:20:25;11.40;;;4.30;;
9508;SDS011;4792;50.088;8.122;2023-12-14T01:22:53;6.00;;;3.70;;
9508;SDS011;4792;50.088;8.122;2023-12-14T01:25:21;11.10;;;4.20;;
9508;SDS011;4792;50.088;8.122;2023-12-14T01:27:48;8.90;;;3.93;;
9508;SDS011;4792;50.088;8.122;2023-12-14T01:30:16;13.17;;;4.70;;
9508;SDS011;4792;50.088;8.122;2023-12-14T01:32:44;9.67;;;5.20;;
9508;SDS011;4792;50.088;8.122;2023-12-14T01:35:13;14.47;;;4.73;;
9508;SDS011;4792;50.088;8.122;2023-12-14T01:37:41;12.73;;;4.87;;
9508;SDS011;4792;50.088;8.122;2023-12-14T01:40:09;11.73;;;5.00;;
9508;SDS011;4792;50.088;8.122;2023-12-14T01:42:37;13.97;;;5.10;;
9508;SDS011;4792;50.088;8.122;2023-12-14T01:45:05;9.70;;;4.57;;
9508;SDS011;4792;50.088;8.122;2023-12-14T01:47:33;14.07;;;5.40;;
9508;SDS011;4792;50.088;8.122;2023-12-14T01:50:01;10.17;;;4.83;;
9508;SDS011;4792;50.088;8.122;2023-12-14T01:52:30;13.27;;;5.27;;
9508;SDS011;4792;50.088;8.122;2023-12-14T01:54:58;10.47;;;5.03;;
9508;SDS011;4792;50.088;8.122;2023-12-14T01:57:26;11.87;;;5.30;;
9508;SDS011;4792;50.088;8.122;2023-12-14T01:59:53;11.13;;;4.93;;
9508;SDS011;4792;50.088;8.122;2023-12-14T02:02:21;10.63;;;5.07;;
9508;SDS011;4792;50.088;8.122;2023-12-14T02:04:49;15.83;;;6.10;;
9508;SDS011;4792;50.088;8.122;2023-12-14T02:07:17;15.67;;;5.03;;
9508;SDS011;4792;50.088;8.122;2023-12-14T02:09:46;15.53;;;4.87;;
9508;SDS011;4792;50.088;8.122;2023-12-14T02:12:13;11.63;;;4.70;;
9508;SDS011;4792;50.088;8.122;2023-12-14T02:14:41;10.40;;;4.50;;
9508;SDS011;4792;50.088;8.122;2023-12-14T02:17:09;12.10;;;4.50;;
9508;SDS011;4792;50.088;8.122;2023-12-14T02:19:37;9.83;;;4.17;;
9508;SDS011;4792;50.088;8.122;2023-12-14T02:22:04;13.23;;;4.37;;
9508;SDS011;4792;50.088;8.122;2023-12-14T02:24:33;10.97;;;4.40;;
9508;SDS011;4792;50.088;8.122;2023-12-14T02:27:01;13.80;;;5.03;;
9508;SDS011;4792;50.088;8.122;2023-12-14T02:29:29;15.00;;;4.97;;
9508;SDS011;4792;50.088;8.122;2023-12-14T02:31:57;9.60;;;4.10;;
9508;SDS011;4792;50.088;8.122;2023-12-14T02:34:25;10.30;;;4.70;;
9508;SDS011;4792;50.088;8.122;2023-12-14T02:36:53;9.17;;;4.63;;
9508;SDS011;4792;50.088;8.122;2023-12-14T02:39:21;11.13;;;4.40;;
9508;SDS011;4792;50.088;8.122;2023-12-14T02:41:50;21.00;;;5.20;;
9508;SDS011;4792;50.088;8.122;2023-12-14T02:44:17;11.50;;;4.10;;
9508;SDS011;4792;50.088;8.122;2023-12-14T02:46:45;12.33;;;4.57;;
9508;SDS011;4792;50.088;8.122;2023-12-14T02:49:13;13.67;;;5.13;;
9508;SDS011;4792;50.088;8.122;2023-12-14T02:51:40;10.03;;;4.67;;
9508;SDS011;4792;50.088;8.122;2023-12-14T02:54:08;8.70;;;4.57;;
9508;SDS011;4792;50.088;8.122;2023-12-14T02:56:36;11.73;;;4.70;;
9508;SDS011;4792;50.088;8.122;2023-12-14T02:59:05;13.27;;;5.30;;
9508;SDS011;4792;50.088;8.122;2023-12-14T03:01:33;11.20;;;5.00;;
9508;SDS011;4792;50.088;8.122;2023-12-14T03:04:01;13.37;;;4.77;;
9508;SDS011;4792;50.088;8.122;2023-12-14T03:06:28;9.17;;;4.83;;
9508;SDS011;4792;50.088;8.122;2023-12-14T03:08:56;12.57;;;5.00;;
9508;SDS011;4792;50.088;8.122;2023-12-14T03:11:24;11.73;;;5.23;;
9508;SDS011;4792;50.088;8.122;2023-12-14T03:13:51;14.83;;;5.50;;
9508;SDS011;4792;50.088;8.122;2023-12-14T03:16:21;12.10;;;5.27;;
9508;SDS011;4792;50.088;8.122;2023-12-14T03:18:48;11.60;;;5.03;;
9508;SDS011;4792;50.088;8.122;2023-12-14T03:21:19;11.13;;;5.63;;
9508;SDS011;4792;50.088;8.122;2023-12-14T03:23:47;11.23;;;5.17;;
9508;SDS011;4792;50.088;8.122;2023-12-14T03:26:14;12.13;;;5.43;;
9508;SDS011;4792;50.088;8.122;2023-12-14T03:28:42;14.47;;;5.63;;
9508;SDS011;4792;50.088;8.122;2023-12-14T03:31:10;11.93;;;5.50;;
9508;SDS011;4792;50.088;8.122;2023-12-14T03:33:41;12.77;;;5.33;;
9508;SDS011;4792;50.088;8.122;2023-12-14T03:36:10;13.87;;;5.97;;
9508;SDS011;4792;50.088;8.122;2023-12-14T03:38:37;15.03;;;5.90;;
9508;SDS011;4792;50.088;8.122;2023-12-14T03:41:05;12.30;;;5.97;;
9508;SDS011;4792;50.088;8.122;2023-12-14T03:43:33;13.63;;;5.90;;
9508;SDS011;4792;50.088;8.122;2023-12-14T03:46:01;13.47;;;5.60;;
9508;SDS011;4792;50.088;8.122;2023-12-14T03:48:28;12.07;;;5.93;;
9508;SDS011;4792;50.088;8.122;2023-12-14T03:50:58;13.73;;;6.07;;
9508;SDS011;4792;50.088;8.122;2023-12-14T03:53:29;12.10;;;7.07;;
9508;SDS011;4792;50.088;8.122;2023-12-14T03:55:57;16.97;;;7.10;;
9508;SDS011;4792;50.088;8.122;2023-12-14T03:58:26;14.73;;;8.13;;
9508;SDS011;4792;50.088;8.122;2023-12-14T04:00:53;16.57;;;7.10;;
9508;SDS011;4792;50.088;8.122;2023-12-14T04:03:21;18.47;;;7.97;;
9508;SDS011;4792;50.088;8.122;2023-12-14T04:05:49;15.13;;;7.10;;
9508;SDS011;4792;50.088;8.122;2023-12-14T04:08:19;13.30;;;7.40;;
9508;SDS011;4792;50.088;8.122;2023-12-14T04:10:47;13.03;;;7.70;;
9508;SDS011;4792;50.088;8.122;2023-12-14T04:13:14;15.30;;;7.50;;
9508;SDS011;4792;50.088;8.122;2023-12-14T04:15:42;17.83;;;8.40;;
9508;SDS011;4792;50.088;8.122;2023-12-14T04:18:10;12.17;;;7.50;;
9508;SDS011;4792;50.088;8.122;2023-12-14T04:20:38;13.40;;;8.23;;
9508;SDS011;4792;50.088;8.122;2023-12-14T04:23:06;13.77;;;7.80;;
9508;SDS011;4792;50.088;8.122;2023-12-14T04:25:35;15.67;;;8.33;;
9508;SDS011;4792;50.088;8.122;2023-12-14T04:28:03;14.40;;;8.20;;
9508;SDS011;4792;50.088;8.122;2023-12-14T04:30:31;15.53;;;8.10;;
9508;SDS011;4792;50.088;8.122;2023-12-14T04:32:59;12.27;;;8.90;;
9508;SDS011;4792;50.088;8.122;2023-12-14T04:35:26;16.13;;;8.17;;
9508;SDS011;4792;50.088;8.122;2023-12-14T04:37:54;14.13;;;8.17;;
9508;SDS011;4792;50.088;8.122;2023-12-14T04:40:22;13.03;;;8.33;;
9508;SDS011;4792;50.088;8.122;2023-12-14T04:42:51;17.40;;;8.87;;
9508;SDS011;4792;50.088;8.122;2023-12-14T04:45:19;16.20;;;8.77;;
9508;SDS011;4792;50.088;8.122;2023-12-14T04:47:47;14.17;;;7.13;;
9508;SDS011;4792;50.088;8.122;2023-12-14T04:50:15;12.07;;;7.80;;
9508;SDS011;4792;50.088;8.122;2023-12-14T04:52:43;11.33;;;7.77;;
9508;SDS011;4792;50.088;8.122;2023-12-14T04:55:11;13.70;;;7.57;;
9508;SDS011;4792;50.088;8.122;2023-12-14T04:57:39;12.83;;;8.20;;
9508;SDS011;4792;50.088;8.122;2023-12-14T05:00:09;11.97;;;8.17;;
9508;SDS011;4792;50.088;8.122;2023-12-14T05:02:37;13.50;;;8.00;;
9508;SDS011;4792;50.088;8.122;2023-12-14T05:05:05;13.23;;;8.47;;
9508;SDS011;4792;50.088;8.122;2023-12-14T05:07:33;15.40;;;8.83;;
9508;SDS011;4792;50.088;8.122;2023-12-14T05:10:01;15.07;;;8.50;;
9508;SDS011;4792;50.088;8.122;2023-12-14T05:12:29;19.83;;;10.73;;
9508;SDS011;4792;50.088;8.122;2023-12-14T05:14:58;13.83;;;9.23;;
9508;SDS011;4792;50.088;8.122;2023-12-14T05:17:27;15.13;;;8.70;;
9508;SDS011;4792;50.088;8.122;2023-12-14T05:19:55;15.97;;;8.97;;
9508;SDS011;4792;50.088;8.122;2023-12-14T05:22:22;15.43;;;9.40;;
9508;SDS011;4792;50.088;8.122;2023-12-14T05:24:50;13.90;;;9.30;;
9508;SDS011;4792;50.088;8.122;2023-12-14T05:27:18;16.07;;;9.20;;
9508;SDS011;4792;50.088;8.122;2023-12-14T05:29:46;18.10;;;9.90;;
9508;SDS011;4792;50.088;8.122;2023-12-14T05:32:13;15.47;;;9.63;;
9508;SDS011;4792;50.088;8.122;2023-12-14T05:34:42;13.60;;;8.90;;
9508;SDS011;4792;50.088;8.122;2023-12-14T05:37:10;13.57;;;8.60;;
9508;SDS011;4792;50.088;8.122;2023-12-14T05:39:40;14.30;;;8.70;;
9508;SDS011;4792;50.088;8.122;2023-12-14T05:42:08;14.10;;;8.70;;
9508;SDS011;4792;50.088;8.122;2023-12-14T05:44:36;15.27;;;9.00;;
9508;SDS011;4792;50.088;8.122;2023-12-14T05:47:04;14.20;;;8.93;;
9508;SDS011;4792;50.088;8.122;2023-12-14T05:49:31;13.70;;;9.53;;
9508;SDS011;4792;50.088;8.122;2023-12-14T05:52:00;12.23;;;7.83;;
9508;SDS011;4792;50.088;8.122;2023-12-14T05:54:28;15.07;;;8.70;;
9508;SDS011;4792;50.088;8.122;2023-12-14T05:56:56;11.83;;;7.67;;
9508;SDS011;4792;50.088;8.122;2023-12-14T05:59:24;11.63;;;8.17;;
9508;SDS011;4792;50.088;8.122;2023-12-14T06:01:56;12.80;;;8.10;;
9508;SDS011;4792;50.088;8.122;2023-12-14T06:04:24;10.67;;;8.00;;
9508;SDS011;4792;50.088;8.122;2023-12-14T06:06:53;12.77;;;8.17;;
9508;SDS011;4792;50.088;8.122;2023-12-14T06:09:22;12.80;;;8.60;;
9508;SDS011;4792;50.088;8.122;2023-12-14T06:11:55;12.70;;;8.23;;
9508;SDS011;4792;50.088;8.122;2023-12-14T06:14:23;13.40;;;9.03;;
9508;SDS011;4792;50.088;8.122;2023-12-14T06:16:50;18.20;;;11.67;;
9508;SDS011;4792;50.088;8.122;2023-12-14T06:19:18;16.67;;;10.57;;
9508;SDS011;4792;50.088;8.122;2023-12-14T06:21:46;16.77;;;9.23;;
9508;SDS011;4792;50.088;8.122;2023-12-14T06:24:14;24.40;;;19.83;;
9508;SDS011;4792;50.088;8.122;2023-12-14T06:26:43;17.07;;;10.40;;
9508;SDS011;4792;50.088;8.122;2023-12-14T06:29:11;16.73;;;10.73;;
9508;SDS011;4792;50.088;8.122;2023-12-14T06:31:39;20.40;;;13.80;;
9508;SDS011;4792;50.088;8.122;2023-12-14T06:34:07;23.20;;;13.93;;
9508;SDS011;4792;50.088;8.122;2023-12-14T06:36:35;16.63;;;10.27;;
9508;SDS011;4792;50.088;8.122;2023-12-14T06:39:03;18.30;;;11.07;;
9508;SDS011;4792;50.088;8.122;2023-12-14T06:41:31;19.67;;;12.17;;
9508;SDS011;4792;50.088;8.122;2023-12-14T06:44:00;14.60;;;9.70;;
9508;SDS011;4792;50.088;8.122;2023-12-14T06:46:28;16.93;;;11.27;;
9508;SDS011;4792;50.088;8.122;2023-12-14T06:48:56;16.20;;;10.50;;
9508;SDS011;4792;50.088;8.122;2023-12-14T06:51:24;15.23;;;10.43;;
9508;SDS011;4792;50.088;8.122;2023-12-14T06:53:52;15.87;;;10.67;;
9508;SDS011;4792;50.088;8.122;2023-12-14T06:56:19;17.53;;;9.90;;
9508;SDS011;4792;50.088;8.122;2023-12-14T06:58:47;21.10;;;11.93;;
9508;SDS011;4792;50.088;8.122;2023-12-14T07:01:17;17.80;;;10.70;;
9508;SDS011;4792;50.088;8.122;2023-12-14T07:03:45;18.97;;;11.60;;
9508;SDS011;4792;50.088;8.122;2023-12-14T07:06:14;18.43;;;11.13;;
9508;SDS011;4792;50.088;8.122;2023-12-14T07:08:43;17.67;;;11.40;;
9508;SDS011;4792;50.088;8.122;2023-12-14T07:11:11;16.77;;;10.40;;
9508;SDS011;4792;50.088;8.122;2023-12-14T07:13:39;15.43;;;10.50;;
9508;SDS011;4792;50.088;8.122;2023-12-14T07:16:08;15.80;;;10.50;;
9508;SDS011;4792;50.088;8.122;2023-12-14T07:18:38;18.53;;;12.60;;
9508;SDS011;4792;50.088;8.122;2023-12-14T07:21:07;15.10;;;9.73;;
9508;SDS011;4792;50.088;8.122;2023-12-14T07:23:36;20.20;;;10.77;;
9508;SDS011;4792;50.088;8.122;2023-12-14T07:26:04;17.17;;;11.07;;
9508;SDS011;4792;50.088;8.122;2023-12-14T07:28:33;17.30;;;10.87;;
9508;SDS011;4792;50.088;8.122;2023-12-14T07:31:01;17.47;;;11.10;;
9508;SDS011;4792;50.088;8.122;2023-12-14T07:33:29;15.37;;;10.67;;
9508;SDS011;4792;50.088;8.122;2023-12-14T07:35:58;17.03;;;11.07;;
9508;SDS011;4792;50.088;8.122;2023-12-14T07:38:26;16.27;;;10.73;;
9508;SDS011;4792;50.088;8.122;2023-12-14T07:40:54;13.97;;;9.67;;
9508;SDS011;4792;50.088;8.122;2023-12-14T07:43:21;18.80;;;12.03;;
9508;SDS011;4792;50.088;8.122;2023-12-14T07:45:49;16.83;;;10.37;;
9508;SDS011;4792;50.088;8.122;2023-12-14T07:48:17;15.83;;;10.53;;
9508;SDS011;4792;50.088;8.122;2023-12-14T07:50:45;15.20;;;9.80;;
9508;SDS011;4792;50.088;8.122;2023-12-14T07:53:16;13.70;;;9.37;;
9508;SDS011;4792;50.088;8.122;2023-12-14T07:55:43;11.90;;;8.40;;
9508;SDS011;4792;50.088;8.122;2023-12-14T07:58:11;12.47;;;8.57;;
9508;SDS011;4792;50.088;8.122;2023-12-14T08:00:39;13.63;;;9.03;;
9508;SDS011;4792;50.088;8.122;2023-12-14T08:03:07;14.07;;;9.23;;
9508;SDS011;4792;50.088;8.122;2023-12-14T08:05:35;13.47;;;9.13;;
9508;SDS011;4792;50.088;8.122;2023-12-14T08:08:03;15.77;;;9.57;;
9508;SDS011;4792;50.088;8.122;2023-12-14T08:10:32;12.23;;;8.33;;
9508;SDS011;4792;50.088;8.122;2023-12-14T08:13:00;11.67;;;7.97;;
9508;SDS011;4792;50.088;8.122;2023-12-14T08:15:28;13.40;;;8.13;;
9508;SDS011;4792;50.088;8.122;2023-12-14T08:17:56;14.37;;;7.90;;
9508;SDS011;4792;50.088;8.122;2023-12-14T08:20:24;11.00;;;7.77;;
9508;SDS011;4792;50.088;8.122;2023-12-14T08:22:52;10.57;;;7.67;;
9508;SDS011;4792;50.088;8.122;2023-12-14T08:25:19;13.40;;;7.83;;
9508;SDS011;4792;50.088;8.122;2023-12-14T08:27:48;11.43;;;7.77;;
9508;SDS011;4792;50.088;8.122;2023-12-14T08:30:16;11.43;;;7.67;;
9508;SDS011;4792;50.088;8.122;2023-12-14T08:32:44;13.00;;;8.17;;
9508;SDS011;4792;50.088;8.122;2023-12-14T08:35:12;11.00;;;8.10;;
9508;SDS011;4792;50.088;8.122;2023-12-14T08:37:40;13.03;;;7.30;;
9508;SDS011;4792;50.088;8.122;2023-12-14T08:40:10;11.20;;;7.73;;
9508;SDS011;4792;50.088;8.122;2023-12-14T08:42:38;12.70;;;7.50;;
9508;SDS011;4792;50.088;8.122;2023-12-14T08:45:10;9.87;;;7.40;;
9508;SDS011;4792;50.088;8.122;2023-12-14T08:47:38;13.60;;;7.43;;
9508;SDS011;4792;50.088;8.122;2023-12-14T08:50:07;10.87;;;6.70;;
9508;SDS011;4792;50.088;8.122;2023-12-14T08:52:35;11.43;;;7.53;;
9508;SDS011;4792;50.088;8.122;2023-12-14T08:55:04;16.50;;;8.30;;
9508;SDS011;4792;50.088;8.122;2023-12-14T08:57:32;10.13;;;7.37;;
9508;SDS011;4792;50.088;8.122;2023-12-14T09:00:00;10.30;;;6.87;;
9508;SDS011;4792;50.088;8.122;2023-12-14T09:02:32;11.13;;;6.97;;
9508;SDS011;4792;50.088;8.122;2023-12-14T09:05:00;11.10;;;7.33;;
9508;SDS011;4792;50.088;8.122;2023-12-14T09:07:29;11.13;;;7.70;;
9508;SDS011;4792;50.088;8.122;2023-12-14T09:09:56;13.23;;;7.80;;
9508;SDS011;4792;50.088;8.122;2023-12-14T09:12:25;12.30;;;8.07;;
9508;SDS011;4792;50.088;8.122;2023-12-14T09:14:53;11.43;;;7.43;;
9508;SDS011;4792;50.088;8.122;2023-12-14T09:17:21;15.90;;;8.10;;
9508;SDS011;4792;50.088;8.122;2023-12-14T09:19:53;10.50;;;7.33;;
9508;SDS011;4792;50.088;8.122;2023-12-14T09:22:21;10.97;;;8.10;;
9508;SDS011;4792;50.088;8.122;2023-12-14T09:24:48;12.80;;;7.97;;
9508;SDS011;4792;50.088;8.122;2023-12-14T09:27:16;14.93;;;8.50;;
9508;SDS011;4792;50.088;8.122;2023-12-14T09:29:44;37.63;;;18.53;;
9508;SDS011;4792;50.088;8.122;2023-12-14T09:32:12;45.63;;;22.53;;
9508;SDS011;4792;50.088;8.122;2023-12-14T09:34:39;31.57;;;18.07;;
9508;SDS011;4792;50.088;8.122;2023-12-14T09:37:09;23.30;;;13.63;;
9508;SDS011;4792;50.088;8.122;2023-12-14T09:39:37;28.20;;;17.70;;
9508;SDS011;4792;50.088;8.122;2023-12-14T09:42:05;36.17;;;21.80;;
9508;SDS011;4792;50.088;8.122;2023-12-14T09:44:35;14.53;;;10.43;;
9508;SDS011;4792;50.088;8.122;2023-12-14T09:47:03;13.43;;;9.07;;
9508;SDS011;4792;50.088;8.122;2023-12-14T09:49:31;16.10;;;8.73;;
9508;SDS011;4792;50.088;8.122;2023-12-14T09:52:00;14.80;;;9.20;;
9508;SDS011;4792;50.088;8.122;2023-12-14T09:54:29;15.10;;;9.60;;
9508;SDS011;4792;50.088;8.122;2023-12-14T09:56:56;12.77;;;8.77;;
9508;SDS011;4792;50.088;8.122;2023-12-14T09:59:24;11.30;;;8.07;;
9508;SDS011;4792;50.088;8.122;2023-12-14T10:01:52;15.17;;;10.00;;
9508;SDS011;4792;50.088;8.122;2023-12-14T10:04:20;14.03;;;9.57;;
9508;SDS011;4792;50.088;8.122;2023-12-14T10:06:49;11.50;;;8.13;;
9508;SDS011;4792;50.088;8.122;2023-12-14T10:09:22;10.97;;;8.17;;
9508;SDS011;4792;50.088;8.122;2023-12-14T10:12:01;12.53;;;8.33;;
9508;SDS011;4792;50.088;8.122;2023-12-14T10:14:30;12.23;;;8.60;;
9508;SDS011;4792;50.088;8.122;2023-12-14T10:16:58;14.47;;;10.03;;
9508;SDS011;4792;50.088;8.122;2023-12-14T10:19:29;11.37;;;8.50;;
9508;SDS011;4792;50.088;8.122;2023-12-14T10:21:57;13.50;;;9.10;;
9508;SDS011;4792;50.088;8.122;2023-12-14T10:24:27;12.50;;;9.47;;
9508;SDS011;4792;50.088;8.122;2023-12-14T10:26:56;14.63;;;10.07;;
9508;SDS011;4792;50.088;8.122;2023-12-14T10:29:24;11.83;;;7.90;;
9508;SDS011;4792;50.088;8.122;2023-12-14T10:31:52;16.30;;;11.33;;
9508;SDS011;4792;50.088;8.122;2023-12-14T10:34:20;19.13;;;11.37;;
9508;SDS011;4792;50.088;8.122;2023-12-14T10:36:48;11.67;;;8.10;;
9508;SDS011;4792;50.088;8.122;2023-12-14T10:39:15;10.73;;;8.07;;
9508;SDS011;4792;50.088;8.122;2023-12-14T10:41:44;16.10;;;11.10;;
9508;SDS011;4792;50.088;8.122;2023-12-14T10:44:25;11.93;;;8.47;;
9508;SDS011;4792;50.088;8.122;2023-12-14T10:47:14;12.83;;;9.53;;
9508;SDS011;4792;50.088;8.122;2023-12-14T10:49:43;13.60;;;9.47;;
9508;SDS011;4792;50.088;8.122;2023-12-14T10:52:11;15.27;;;9.53;;
9508;SDS011;4792;50.088;8.122;2023-12-14T10:54:39;12.77;;;9.23;;
9508;SDS011;4792;50.088;8.122;2023-12-14T10:57:07;12.70;;;9.43;;
9508;SDS011;4792;50.088;8.122;2023-12-14T10:59:36;13.67;;;9.03;;
9508;SDS011;4792;50.088;8.122;2023-12-14T11:02:06;15.70;;;11.20;;
9508;SDS011;4792;50.088;8.122;2023-12-14T11:10:11;17.97;;;11.70;;
9508;SDS011;4792;50.088;8.122;2023-12-14T11:12:49;17.00;;;11.83;;
9508;SDS011;4792;50.088;8.122;2023-12-14T11:15:19;15.77;;;10.70;;
9508;SDS011;4792;50.088;8.122;2023-12-14T11:20:54;20.23;;;13.00;;
9508;SDS011;4792;50.088;8.122;2023-12-14T11:23:27;17.10;;;12.40;;
9508;SDS011;4792;50.088;8.122;2023-12-14T11:25:58;20.37;;;12.87;;
9508;SDS011;4792;50.088;8.122;2023-12-14T11:28:27;21.87;;;12.63;;
9508;SDS011;4792;50.088;8.122;2023-12-14T11:30:57;19.10;;;12.07;;
9508;SDS011;4792;50.088;8.122;2023-12-14T11:33:25;19.73;;;10.90;;
9508;SDS011;4792;50.088;8.122;2023-12-14T11:35:55;17.00;;;10.63;;
9508;SDS011;4792;50.088;8.122;2023-12-14T11:38:24;14.53;;;9.47;;
9508;SDS011;4792;50.088;8.122;2023-12-14T11:40:52;17.90;;;9.60;;
9508;SDS011;4792;50.088;8.122;2023-12-14T11:43:20;17.87;;;9.33;;
9508;SDS011;4792;50.088;8.122;2023-12-14T11:45:48;19.97;;;8.87;;
9508;SDS011;4792;50.088;8.122;2023-12-14T11:48:17;13.17;;;8.50;;
9508;SDS011;4792;50.088;8.122;2023-12-14T11:50:47;23.03;;;10.00;;
9508;SDS011;4792;50.088;8.122;2023-12-14T11:53:15;13.87;;;8.50;;
9508;SDS011;4792;50.088;8.122;2023-12-14T11:55:43;14.67;;;8.77;;
9508;SDS011;4792;50.088;8.122;2023-12-14T11:58:13;18.43;;;8.70;;
9508;SDS011;4792;50.088;8.122;2023-12-14T12:00:42;13.03;;;8.07;;
9508;SDS011;4792;50.088;8.122;2023-12-14T12:03:13;13.37;;;7.73;;
9508;SDS011;4792;50.088;8.122;2023-12-14T12:05:44;13.50;;;8.27;;
9508;SDS011;4792;50.088;8.122;2023-12-14T12:08:14;15.97;;;9.13;;
9508;SDS011;4792;50.088;8.122;2023-12-14T12:10:45;12.63;;;8.33;;
9508;SDS011;4792;50.088;8.122;2023-12-14T12:13:14;12.37;;;8.10;;
9508;SDS011;4792;50.088;8.122;2023-12-14T12:15:43;14.63;;;8.43;;
9508;SDS011;4792;50.088;8.122;2023-12-14T12:18:11;16.13;;;8.47;;
9508;SDS011;4792;50.088;8.122;2023-12-14T12:20:40;14.80;;;8.53;;
9508;SDS011;4792;50.088;8.122;2023-12-14T12:23:10;13.03;;;7.87;;
9508;SDS011;4792;50.088;8.122;2023-12-14T12:25:38;14.80;;;7.93;;
9508;SDS011;4792;50.088;8.122;2023-12-14T12:28:05;12.40;;;7.90;;
9508;SDS011;4792;50.088;8.122;2023-12-14T12:30:33;14.83;;;8.90;;
9508;SDS011;4792;50.088;8.122;2023-12-14T12:33:05;18.63;;;9.63;;
9508;SDS011;4792;50.088;8.122;2023-12-14T12:35:33;14.47;;;8.70;;
9508;SDS011;4792;50.088;8.122;2023-12-14T12:38:01;13.70;;;8.30;;
9508;SDS011;4792;50.088;8.122;2023-12-14T12:40:31;14.87;;;9.13;;
9508;SDS011;4792;50.088;8.122;2023-12-14T12:43:00;14.53;;;9.20;;
9508;SDS011;4792;50.088;8.122;2023-12-14T12:45:29;20.23;;;9.33;;
9508;SDS011;4792;50.088;8.122;2023-12-14T12:47:59;18.90;;;9.13;;
9508;SDS011;4792;50.088;8.122;2023-12-14T12:50:27;16.17;;;9.17;;
9508;SDS011;4792;50.088;8.122;2023-12-14T12:52:54;33.07;;;9.60;;
9508;SDS011;4792;50.088;8.122;2023-12-14T12:55:22;20.43;;;9.40;;
9508;SDS011;4792;50.088;8.122;2023-12-14T12:57:52;16.80;;;8.77;;
9508;SDS011;4792;50.088;8.122;2023-12-14T13:00:20;19.67;;;7.43;;
9508;SDS011;4792;50.088;8.122;2023-12-14T13:02:49;12.53;;;7.10;;
9508;SDS011;4792;50.088;8.122;2023-12-14T13:05:17;9.57;;;6.40;;
9508;SDS011;4792;50.088;8.122;2023-12-14T13:07:46;12.67;;;6.70;;
9508;SDS011;4792;50.088;8.122;2023-12-14T13:10:14;7.30;;;5.67;;
9508;SDS011;4792;50.088;8.122;2023-12-14T13:12:57;8.17;;;5.43;;
9508;SDS011;4792;50.088;8.122;2023-12-14T13:15:26;10.10;;;5.63;;
9508;SDS011;4792;50.088;8.122;2023-12-14T13:17:56;12.07;;;5.70;;
9508;SDS011;4792;50.088;8.122;2023-12-14T13:20:25;18.70;;;6.93;;
9508;SDS011;4792;50.088;8.122;2023-12-14T13:22:53;14.30;;;6.90;;
9508;SDS011;4792;50.088;8.122;2023-12-14T13:25:21;7.57;;;5.73;;
9508;SDS011;4792;50.088;8.122;2023-12-14T13:27:52;10.40;;;5.73;;
9508;SDS011;4792;50.088;8.122;2023-12-14T13:30:21;7.93;;;6.00;;
9508;SDS011;4792;50.088;8.122;2023-12-14T13:32:50;7.20;;;5.90;;
9508;SDS011;4792;50.088;8.122;2023-12-14T13:35:20;14.00;;;6.20;;
9508;SDS011;4792;50.088;8.122;2023-12-14T13:37:49;6.47;;;4.90;;
9508;SDS011;4792;50.088;8.122;2023-12-14T13:40:16;28.97;;;7.17;;
9508;SDS011;4792;50.088;8.122;2023-12-14T13:42:45;38.57;;;8.63;;
9508;SDS011;4792;50.088;8.122;2023-12-14T13:45:30;6.87;;;4.73;;
9508;SDS011;4792;50.088;8.122;2023-12-14T13:47:58;5.60;;;4.03;;
9508;SDS011;4792;50.088;8.122;2023-12-14T13:50:26;9.00;;;4.33;;
9508;SDS011;4792;50.088;8.122;2023-12-14T13:52:55;6.13;;;4.40;;
9508;SDS011;4792;50.088;8.122;2023-12-14T13:55:23;8.87;;;6.13;;
9508;SDS011;4792;50.088;8.122;2023-12-14T13:57:52;12.30;;;4.50;;
9508;SDS011;4792;50.088;8.122;2023-12-14T14:00:19;5.93;;;4.07;;
9508;SDS011;4792;50.088;8.122;2023-12-14T14:02:49;17.20;;;5.77;;
9508;SDS011;4792;50.088;8.122;2023-12-14T14:05:17;8.47;;;5.97;;
9508;SDS011;4792;50.088;8.122;2023-12-14T14:07:46;5.43;;;4.00;;
9508;SDS011;4792;50.088;8.122;2023-12-14T14:10:15;8.60;;;5.63;;
9508;SDS011;4792;50.088;8.122;2023-12-14T14:12:43;27.03;;;5.77;;
9508;SDS011;4792;50.088;8.122;2023-12-14T14:15:11;5.13;;;4.20;;
9508;SDS011;4792;50.088;8.122;2023-12-14T14:17:39;5.83;;;4.63;;
9508;SDS011;4792;50.088;8.122;2023-12-14T14:20:09;7.73;;;3.83;;
9508;SDS011;4792;50.088;8.122;2023-12-14T14:22:37;6.47;;;4.53;;
9508;SDS011;4792;50.088;8.122;2023-12-14T14:25:06;5.33;;;3.97;;
9508;SDS011;4792;50.088;8.122;2023-12-14T14:27:34;5.47;;;4.33;;
9508;SDS011;4792;50.088;8.122;2023-12-14T14:30:02;5.53;;;4.53;;
9508;SDS011;4792;50.088;8.122;2023-12-14T14:32:31;6.30;;;4.40;;
9508;SDS011;4792;50.088;8.122;2023-12-14T14:35:02;11.43;;;5.93;;
9508;SDS011;4792;50.088;8.122;2023-12-14T14:37:31;12.50;;;5.93;;
9508;SDS011;4792;50.088;8.122;2023-12-14T14:40:01;16.17;;;6.00;;
9508;SDS011;4792;50.088;8.122;2023-12-14T14:42:30;40.17;;;7.97;;
9508;SDS011;4792;50.088;8.122;2023-12-14T14:44:58;7.57;;;5.87;;
9508;SDS011;4792;50.088;8.122;2023-12-14T14:47:26;8.97;;;6.27;;
9508;SDS011;4792;50.088;8.122;2023-12-14T14:49:54;7.23;;;5.43;;
9508;SDS011;4792;50.088;8.122;2023-12-14T14:52:29;12.47;;;6.80;;
9508;SDS011;4792;50.088;8.122;2023-12-14T14:54:59;13.53;;;6.17;;
9508;SDS011;4792;50.088;8.122;2023-12-14T14:57:28;8.63;;;6.60;;
9508;SDS011;4792;50.088;8.122;2023-12-14T14:59:55;8.80;;;6.37;;
9508;SDS011;4792;50.088;8.122;2023-12-14T15:02:23;8.07;;;6.13;;
9508;SDS011;4792;50.088;8.122;2023-12-14T15:04:52;17.97;;;7.17;;
9508;SDS011;4792;50.088;8.122;2023-12-14T15:07:19;9.30;;;5.77;;
9508;SDS011;4792;50.088;8.122;2023-12-14T15:09:47;6.57;;;5.30;;
9508;SDS011;4792;50.088;8.122;2023-12-14T15:12:16;7.37;;;5.70;;
9508;SDS011;4792;50.088;8.122;2023-12-14T15:14:44;7.23;;;5.40;;
9508;SDS011;4792;50.088;8.122;2023-12-14T15:17:12;7.90;;;5.80;;
9508;SDS011;4792;50.088;8.122;2023-12-14T15:19:40;5.93;;;5.17;;